createdAt,value
2022-09-28T00:03:08.121Z,16.375
2022-09-28T00:06:48.930Z,16.375
2022-09-28T00:10:29.133Z,16.375
2022-09-28T00:14:09.478Z,16.312
2022-09-28T00:17:50.104Z,16.312
2022-09-28T00:21:30.307Z,16.312
2022-09-28T00:25:16.757Z,16.312
2022-09-28T00:28:56.773Z,16.312
2022-09-28T00:32:38.407Z,16.312
2022-09-28T00:36:18.539Z,16.312
2022-09-28T00:39:59.220Z,16.312
2022-09-28T00:43:39.682Z,16.312
2022-09-28T00:47:20.412Z,16.312
2022-09-28T00:51:00.594Z,16.312
2022-09-28T00:54:40.941Z,16.25
2022-09-28T00:58:20.880Z,16.25
2022-09-28T01:03:08.156Z,16.25
2022-09-28T01:06:47.912Z,16.25
2022-09-28T01:10:27.905Z,16.25
2022-09-28T01:14:08.021Z,16.25
2022-09-28T01:17:48.959Z,16.25
2022-09-28T01:21:29.041Z,16.25
2022-09-28T01:25:09.067Z,16.25
2022-09-28T01:28:48.996Z,16.25
2022-09-28T01:32:29.338Z,16.187
2022-09-28T01:36:09.335Z,16.187
2022-09-28T01:39:49.740Z,16.187
2022-09-28T01:43:30.622Z,16.187
2022-09-28T01:47:11.519Z,16.187
2022-09-28T01:50:51.901Z,16.187
2022-09-28T01:54:31.859Z,16.187
2022-09-28T01:58:12.301Z,16.187
2022-09-28T02:03:06.925Z,16.125
2022-09-28T02:06:46.874Z,16.125
2022-09-28T02:10:26.839Z,16.125
2022-09-28T02:14:06.515Z,16.125
2022-09-28T02:17:47.012Z,16.125
2022-09-28T02:21:26.913Z,16.125
2022-09-28T02:25:10.351Z,16.125
2022-09-28T02:28:50.574Z,16.125
2022-09-28T02:32:31.098Z,16.125
2022-09-28T02:36:11.184Z,16.125
2022-09-28T02:39:51.453Z,16.062
2022-09-28T02:43:31.801Z,16.062
2022-09-28T02:47:12.493Z,16.062
2022-09-28T02:51:31.205Z,16.062
2022-09-28T02:55:11.101Z,16.062
2022-09-28T02:58:51.181Z,16.062
2022-09-28T03:03:07.816Z,16.062
2022-09-28T03:06:47.682Z,16.062
2022-09-28T03:10:27.719Z,16.062
2022-09-28T03:14:07.548Z,16.062
2022-09-28T03:17:48.012Z,16.062
2022-09-28T03:21:27.916Z,16.0
2022-09-28T03:25:16.858Z,16.0
2022-09-28T03:28:56.836Z,16.0
2022-09-28T03:32:37.967Z,16.0
2022-09-28T03:36:17.856Z,16.0
2022-09-28T03:39:58.186Z,16.0
2022-09-28T03:43:38.502Z,16.0
2022-09-28T03:47:18.914Z,16.0
2022-09-28T03:51:08.945Z,16.0
2022-09-28T03:54:49.326Z,16.0
2022-09-28T03:58:30.088Z,16.0
2022-09-28T04:03:10.296Z,16.0
2022-09-28T04:08:36.717Z,15.937
2022-09-28T04:12:47.853Z,15.937
2022-09-28T04:16:29.792Z,15.937
2022-09-28T04:20:17.331Z,15.937
2022-09-28T04:23:58.373Z,15.937
2022-09-28T04:27:39.319Z,15.937
2022-09-28T04:31:20.059Z,15.937
2022-09-28T04:35:10.717Z,15.937
2022-09-28T04:39:20.496Z,15.937
2022-09-28T04:43:02.179Z,15.937
2022-09-28T04:46:43.575Z,15.937
2022-09-28T04:50:24.525Z,15.937
2022-09-28T04:54:10.535Z,15.937
2022-09-28T04:57:51.413Z,15.875
2022-09-28T05:03:08.732Z,15.875
2022-09-28T05:06:52.846Z,15.875
2022-09-28T05:10:34.105Z,15.875
2022-09-28T05:14:15.145Z,15.875
2022-09-28T05:17:58.400Z,15.875
2022-09-28T05:21:39.526Z,15.875
2022-09-28T05:25:21.004Z,15.875
2022-09-28T05:29:02.649Z,15.875
2022-09-28T05:32:45.180Z,15.812
2022-09-28T05:36:33.794Z,15.812
2022-09-28T05:40:14.696Z,15.812
2022-09-28T05:44:01.479Z,15.812
2022-09-28T05:47:48.059Z,15.812
2022-09-28T05:51:28.925Z,15.875
2022-09-28T05:55:10.177Z,15.875
2022-09-28T05:58:51.793Z,15.875
2022-09-28T06:03:09.647Z,15.812
2022-09-28T06:06:51.415Z,15.875
2022-09-28T06:10:32.756Z,15.812
2022-09-28T06:14:13.625Z,15.812
2022-09-28T06:17:55.329Z,15.812
2022-09-28T06:21:36.374Z,15.812
2022-09-28T06:25:24.048Z,15.812
2022-09-28T06:29:05.217Z,15.812
2022-09-28T06:32:50.921Z,15.812
2022-09-28T06:36:37.225Z,15.812
2022-09-28T06:40:18.454Z,15.812
2022-09-28T06:44:05.990Z,15.812
2022-09-28T06:47:48.063Z,15.812
2022-09-28T06:51:29.535Z,15.812
2022-09-28T06:55:10.674Z,15.812
2022-09-28T06:58:57.805Z,15.812
2022-09-28T07:03:09.097Z,15.812
2022-09-28T07:06:51.234Z,15.812
2022-09-28T07:11:22.790Z,15.812
2022-09-28T07:15:57.953Z,15.812
2022-09-28T07:20:45.492Z,15.812
2022-09-28T07:25:25.515Z,15.812
2022-09-28T07:29:18.850Z,15.812
2022-09-28T07:33:00.957Z,15.875
2022-09-28T07:36:45.503Z,15.875
2022-09-28T07:40:26.632Z,15.875
2022-09-28T07:44:08.279Z,15.937
2022-09-28T07:47:55.820Z,15.937
2022-09-28T07:51:43.914Z,16.0
2022-09-28T07:55:29.605Z,16.0
2022-09-28T07:59:11.011Z,16.0
2022-09-28T08:03:12.734Z,16.0
2022-09-28T08:06:53.750Z,16.0
2022-09-28T08:10:35.843Z,16.062
2022-09-28T08:14:26.537Z,16.062
2022-09-28T08:18:11.117Z,16.062
2022-09-28T08:21:52.257Z,16.062
2022-09-28T08:25:34.484Z,16.062
2022-09-28T08:29:15.314Z,16.062
2022-09-28T08:32:56.911Z,16.062
2022-09-28T08:36:37.781Z,16.062
2022-09-28T08:40:25.754Z,16.062
2022-09-28T08:44:07.373Z,16.062
2022-09-28T08:47:56.296Z,16.062
2022-09-28T08:52:10.567Z,16.062
2022-09-28T08:55:57.631Z,16.062
2022-09-28T08:59:38.504Z,16.062
2022-09-28T09:03:08.004Z,16.062
2022-09-28T09:06:55.979Z,16.125
2022-09-28T09:10:37.340Z,16.187
2022-09-28T09:14:18.842Z,16.187
2022-09-28T09:18:00.626Z,16.25
2022-09-28T09:21:44.711Z,16.25
2022-09-28T09:25:26.110Z,16.25
2022-09-28T09:29:17.379Z,16.25
2022-09-28T09:33:09.228Z,16.312
2022-09-28T09:36:55.257Z,16.375
2022-09-28T09:40:42.507Z,16.5
2022-09-28T09:44:24.214Z,16.625
2022-09-28T09:48:05.828Z,16.75
2022-09-28T09:51:53.445Z,16.812
2022-09-28T09:55:39.349Z,16.875
2022-09-28T09:59:20.520Z,16.875
2022-09-28T10:03:08.446Z,16.937
2022-09-28T10:06:49.439Z,17.0
2022-09-28T10:10:32.833Z,17.0
2022-09-28T10:14:14.087Z,17.062
2022-09-28T10:17:55.293Z,17.125
2022-09-28T10:21:36.702Z,17.187
2022-09-28T10:25:18.215Z,17.187
2022-09-28T10:29:03.183Z,17.25
2022-09-28T10:32:45.636Z,17.25
2022-09-28T10:36:31.999Z,17.312
2022-09-28T10:40:12.895Z,17.25
2022-09-28T10:43:58.049Z,17.25
2022-09-28T10:47:40.022Z,17.25
2022-09-28T10:51:27.400Z,17.25
2022-09-28T10:55:09.127Z,17.25
2022-09-28T10:58:54.368Z,17.312
2022-09-28T11:03:13.691Z,17.437
2022-09-28T11:06:55.413Z,17.5
2022-09-28T11:10:37.935Z,17.437
2022-09-28T11:14:19.133Z,17.437
2022-09-28T11:18:01.802Z,17.437
2022-09-28T11:21:54.534Z,17.375
2022-09-28T11:25:42.738Z,17.312
2022-09-28T11:29:24.164Z,17.312
2022-09-28T11:33:05.849Z,17.25
2022-09-28T11:37:03.781Z,17.25
2022-09-28T11:40:45.529Z,17.25
2022-09-28T11:44:31.035Z,17.25
2022-09-28T11:48:15.367Z,17.25
2022-09-28T11:52:04.202Z,17.25
2022-09-28T11:55:45.613Z,17.187
2022-09-28T11:59:26.722Z,17.187
2022-09-28T12:03:12.539Z,17.187
2022-09-28T12:07:01.574Z,17.25
2022-09-28T12:10:45.537Z,17.312
2022-09-28T12:14:26.642Z,17.375
2022-09-28T12:19:33.995Z,17.437
2022-09-28T12:23:16.889Z,17.437
2022-09-28T12:27:04.266Z,17.375
2022-09-28T12:30:45.783Z,17.375
2022-09-28T12:34:27.520Z,17.375
2022-09-28T12:38:14.445Z,17.5
2022-09-28T12:42:47.292Z,17.625
2022-09-28T12:47:01.174Z,17.625
2022-09-28T12:52:36.069Z,17.5
2022-09-28T12:56:20.865Z,17.437
2022-09-28T13:03:09.445Z,17.25
2022-09-28T13:06:56.539Z,17.25
2022-09-28T13:10:38.534Z,17.187
2022-09-28T13:14:20.126Z,17.187
2022-09-28T13:18:01.858Z,17.125
2022-09-28T13:21:42.776Z,17.125
2022-09-28T13:26:01.089Z,17.062
2022-09-28T13:29:42.815Z,17.062
2022-09-28T13:33:32.267Z,17.125
2022-09-28T13:37:19.894Z,17.062
2022-09-28T13:41:01.668Z,17.062
2022-09-28T13:44:48.890Z,17.062
2022-09-28T13:48:31.113Z,17.062
2022-09-28T13:52:12.594Z,17.187
2022-09-28T13:55:54.288Z,17.312
2022-09-28T13:59:35.727Z,17.437
2022-09-28T14:03:08.805Z,17.562
2022-09-28T14:06:53.529Z,17.687
2022-09-28T14:10:41.340Z,17.812
2022-09-28T14:14:22.754Z,17.875
2022-09-28T14:18:04.498Z,17.75
2022-09-28T14:21:46.088Z,17.687
2022-09-28T14:25:34.842Z,17.562
2022-09-28T14:29:16.475Z,17.437
2022-09-28T14:32:58.989Z,17.437
2022-09-28T14:36:42.788Z,17.375
2022-09-28T14:40:24.184Z,17.375
2022-09-28T14:44:06.266Z,17.312
2022-09-28T14:47:56.615Z,17.375
2022-09-28T14:51:44.219Z,17.437
2022-09-28T14:55:25.710Z,17.5
2022-09-28T14:59:11.207Z,17.437
2022-09-28T15:03:11.447Z,17.437
2022-09-28T15:06:56.681Z,17.375
2022-09-28T15:10:38.171Z,17.312
2022-09-28T15:14:19.427Z,17.312
2022-09-28T15:18:06.310Z,17.25
2022-09-28T15:21:47.917Z,17.25
2022-09-28T15:25:34.011Z,17.25
2022-09-28T15:29:15.736Z,17.187
2022-09-28T15:32:57.965Z,17.187
2022-09-28T15:36:40.331Z,17.187
2022-09-28T15:40:25.206Z,17.125
2022-09-28T15:44:06.602Z,17.125
2022-09-28T15:47:48.777Z,17.187
2022-09-28T15:51:31.244Z,17.125
2022-09-28T15:55:13.303Z,17.125
2022-09-28T15:58:54.583Z,17.062
2022-09-28T16:03:09.516Z,17.062
2022-09-28T16:08:43.976Z,17.062
2022-09-28T16:12:30.682Z,17.062
2022-09-28T16:16:12.856Z,17.125
2022-09-28T16:19:55.172Z,17.187
2022-09-28T16:23:36.201Z,17.187
2022-09-28T16:27:17.823Z,17.25
2022-09-28T16:31:01.964Z,17.25
2022-09-28T16:34:49.117Z,17.25
2022-09-28T16:38:30.378Z,17.25
2022-09-28T16:42:12.336Z,17.187
2022-09-28T16:45:54.665Z,17.187
2022-09-28T16:49:36.933Z,17.187
2022-09-28T16:53:24.393Z,17.187
2022-09-28T16:57:31.659Z,17.187
2022-09-28T17:03:35.840Z,17.125
2022-09-28T17:07:20.433Z,17.125
2022-09-28T17:11:43.410Z,17.125
2022-09-28T17:15:25.096Z,17.062
2022-09-28T17:26:02.958Z,17.125
2022-09-28T17:29:44.257Z,17.062
2022-09-28T17:33:26.347Z,17.062
2022-09-28T17:37:20.952Z,17.062
2022-09-28T17:41:03.218Z,17.062
2022-09-28T17:44:50.325Z,17.062
2022-09-28T17:48:32.624Z,17.062
2022-09-28T17:52:19.305Z,17.062
2022-09-28T17:56:02.153Z,17.062
2022-09-28T17:59:43.750Z,17.062
2022-09-28T18:03:08.491Z,17.062
2022-09-28T18:07:25.138Z,17.062
2022-09-28T18:11:06.356Z,17.062
2022-09-28T18:14:53.952Z,17.062
2022-09-28T18:18:36.135Z,17.062
2022-09-28T18:22:21.541Z,17.0
2022-09-28T18:26:03.256Z,17.0
2022-09-28T18:29:44.760Z,17.0
2022-09-28T18:33:26.579Z,17.0
2022-09-28T18:37:13.874Z,17.0
2022-09-28T18:40:56.095Z,17.0
2022-09-28T18:44:37.355Z,17.0
2022-09-28T18:48:19.092Z,17.0
2022-09-28T18:52:00.826Z,17.0
2022-09-28T18:55:42.257Z,17.0
2022-09-28T18:59:22.985Z,17.0
2022-09-28T19:03:25.702Z,17.0
2022-09-28T19:07:07.875Z,17.0
2022-09-28T19:10:54.873Z,17.0
2022-09-28T19:14:36.632Z,17.0
2022-09-28T19:18:18.605Z,17.0
2022-09-28T19:22:00.441Z,16.937
2022-09-28T19:25:42.084Z,16.937
2022-09-28T19:29:23.326Z,16.937
2022-09-28T19:33:04.451Z,16.937
2022-09-28T19:36:51.356Z,16.937
2022-09-28T19:40:32.405Z,16.937
2022-09-28T19:44:20.514Z,16.937
2022-09-28T19:48:02.925Z,16.937
2022-09-28T19:52:10.898Z,16.937
2022-09-28T19:56:00.300Z,16.937
2022-09-28T19:59:41.407Z,16.937
2022-09-28T20:03:08.862Z,16.937
2022-09-28T20:06:55.111Z,16.937
2022-09-28T20:10:37.077Z,16.937
2022-09-28T20:14:17.900Z,16.937
2022-09-28T20:18:10.514Z,16.937
2022-09-28T20:21:58.903Z,16.937
2022-09-28T20:25:40.376Z,16.937
2022-09-28T20:29:21.839Z,16.937
2022-09-28T20:33:11.664Z,16.875
2022-09-28T20:37:19.031Z,16.875
2022-09-28T20:41:05.698Z,16.875
2022-09-28T20:44:53.839Z,16.875
2022-09-28T20:48:35.460Z,16.812
2022-09-28T20:52:16.415Z,16.875
2022-09-28T20:55:58.250Z,16.812
2022-09-28T20:59:40.001Z,16.812
2022-09-28T21:03:08.051Z,16.812
2022-09-28T21:06:55.342Z,16.812
2022-09-28T21:10:37.122Z,16.812
2022-09-28T21:14:18.590Z,16.75
2022-09-28T21:18:01.607Z,16.75
2022-09-28T21:21:42.492Z,16.75
2022-09-28T21:25:23.482Z,16.75
2022-09-28T21:29:04.699Z,16.75
2022-09-28T21:32:52.234Z,16.75
2022-09-28T21:36:34.007Z,16.687
2022-09-28T21:40:15.189Z,16.625
2022-09-28T21:43:56.781Z,16.562
2022-09-28T21:47:44.025Z,16.562
2022-09-28T21:51:25.786Z,16.562
2022-09-28T21:55:06.927Z,16.562
2022-09-28T21:58:47.955Z,16.5
2022-09-28T22:03:09.482Z,16.562
2022-09-28T22:06:50.591Z,16.5
2022-09-28T22:10:36.796Z,16.5
2022-09-28T22:14:17.351Z,16.5
2022-09-28T22:17:58.258Z,16.5
2022-09-28T22:21:38.646Z,16.5
2022-09-28T22:25:23.916Z,16.437
2022-09-28T22:29:04.577Z,16.437
2022-09-28T22:32:45.873Z,16.437
2022-09-28T22:36:26.667Z,16.437
2022-09-28T22:40:12.981Z,16.375
2022-09-28T22:43:53.960Z,16.375
2022-09-28T22:47:40.412Z,16.375
2022-09-28T22:51:21.211Z,16.375
2022-09-28T22:55:02.068Z,16.375
2022-09-28T22:58:48.212Z,16.375
2022-09-28T23:03:08.856Z,16.375
2022-09-28T23:06:49.871Z,16.375
2022-09-28T23:10:30.916Z,16.312
2022-09-28T23:14:11.805Z,16.312
2022-09-28T23:17:53.335Z,16.312
2022-09-28T23:21:34.098Z,16.312
2022-09-28T23:25:14.731Z,16.312
2022-09-28T23:28:55.515Z,16.312
2022-09-28T23:32:36.799Z,16.312
2022-09-28T23:36:17.325Z,16.25
2022-09-28T23:39:58.370Z,16.25
2022-09-28T23:43:39.606Z,16.25
2022-09-28T23:47:21.098Z,16.25
2022-09-28T23:51:02.834Z,16.25
2022-09-28T23:54:43.130Z,16.25
2022-09-28T23:58:23.372Z,16.25
